KMKC/MKC METAR and TAF weather

Enter ICAO airport designator
Station Type Date Time Source
KMKC METAR 2021/03/04 20:54 UTC NOAA

KMKC 042054Z 09009KT 10SM CLR 22/M02 A3004 RMK AO2 SLP171 T02221022 56023


Station Type Date Time Source
KMKC Decoded METAR 2021/03/04 20:54 UTC NOAA

KANSAS CITY DOWNTOWN AIRPORT , MO, United States (KMKC) 39-07N 094-36W 227M
Mar 04, 2021 - 03:54 PM EST / 2021.03.04 2054 UTC
Wind: from the E (090 degrees) at 10 MPH (9 KT):0
Visibility: 10 mile(s):0
Sky conditions: clear
Temperature: 72.0 F (22.2 C)
Dew Point: 28.0 F (-2.2 C)
Relative Humidity: 19%
Pressure (altimeter): 30.04 in. Hg (1017 hPa)
Pressure tendency: 0.07 inches (2.3 hPa) lower than three hours ago
ob: KMKC 042054Z 09009KT 10SM CLR 22/M02 A3004 RMK AO2 SLP171 T02221022 56023
cycle: 21

Station Type Date Time Source
KMKC TAF 2021/03/04 18:33 UTC NOAA

TAF KMKC 041730Z 0418/0518 11005KT P6SM SKC
FM050000 07007KT P6SM BKN250
FM051200 07010KT P6SM BKN080

Example: see airport list